Aviation Digital Data Service (ADDS)

Output produced by METARs form (0143 UTC 23 November 2017)
found at http://www.aviationweather.gov/adds/metars/
 
TAF AMD TXKF 230030Z 2300/2324 12016KT 9999 VCSH FEW009 SCT025 BKN050 OVC180 
     TEMPO 2300/2315 15018KT 6000 -SHRA SCT009 BKN016 OVC025 
     PROB40 
     TEMPO 2300/2312 12020KT 3200 SHRA BKN014 OVC025 
     PROB30 
     TEMPO 2300/2304 18025G35KT 1600 +SHRA BKN009 OVC025 
     PROB30 
     TEMPO 2304/2309 VRB20G30KT 1600 TSRA BKN009CB OVC014 
     BECMG 2307/2310 07018KT 
     BECMG 2310/2313 36016KT VCSH SCT010 BKN016 
     BECMG 2317/2321 30009KT NSW FEW015 SCT025 BKN300